ADDS METAR Data INFO
IDs: Format: Raw Decoded Include TAF

Data at: 0026 UTC 23 Oct 2017

KBKV 222353Z 12007KT 10SM CLR 27/22 A3006 RMK AO2 LTG DSNT W SLP176 T02720217 10328 20272 53004
KBKV 222253Z 10005KT 10SM CLR 28/22 A3005 RMK AO2 SLP174 T02780217
KBKV 222153Z 12007KT 10SM FEW047 BKN060 OVC090 30/21 A3005 RMK AO2 SLP173 T03000211
KBKV 222053Z 13006KT 10SM CLR 31/21 A3005 RMK AO2 SLP172 T03110206 56013
KBKV 221953Z 14007KT 10SM CLR 32/19 A3005 RMK AO2 SLP175 T03220194
KBKV 221853Z 12011G15KT 10SM FEW049 32/21 A3007 RMK AO2 SLP179 T03220206
KBKV 221753Z 13009KT 10SM SCT043 32/21 A3008 RMK AO2 SLP185 T03220211 10322 20222 58021
KBKV 221653Z 11011KT 10SM FEW030 BKN036 BKN044 31/22 A3011 RMK AO2 SLP194 T03060222
KBKV 221613Z 10008KT 10SM SCT026 30/23 A3013 RMK AO2 T03000228
KBKV 221604Z 10009KT 10SM BKN026 29/22 A3013 RMK AO2 T02940222
KBKV 221553Z 11008G17KT 10SM SCT026 29/23 A3014 RMK AO2 SLP203 T02940228
KBKV 221453Z 12010G16KT 10SM CLR 28/23 A3015 RMK AO2 SLP206 T02830228 50008
KBKV 221353Z 09010KT 10SM CLR 27/23 A3015 RMK AO2 SLP206 T02670228
KBKV 221253Z 07007KT 10SM CLR 23/22 A3014 RMK AO2 SLP204 T02330217
KBKV 221153Z 04004KT 10SM CLR 22/21 A3012 RMK AO2 SLP198 T02220211 10228 20222 53008
KBKV 221053Z 05006KT 10SM CLR 22/21 A3011 RMK AO2 SLP193 T02220206
KBKV 220953Z AUTO 05003KT 10SM CLR 22/21 A3011 RMK AO2 SLP193 T02220211
KBKV 220853Z AUTO 05007KT 10SM CLR 22/21 A3010 RMK AO2 SLP190 T02220206 55009
KBKV 220753Z AUTO 06007KT 10SM CLR 23/21 A3010 RMK AO2 SLP189 T02280211
KBKV 220653Z AUTO 07006KT 10SM CLR 23/21 A3012 RMK AO2 SLP196 T02280211
KBKV 220553Z AUTO 07007KT 10SM CLR 23/21 A3013 RMK AO2 SLP199 T02280211 10256 20228 58013
KBKV 220453Z AUTO 05007KT 10SM CLR 23/21 A3014 RMK AO2 SLP203 T02330211 403110206
KBKV 220353Z AUTO 07006KT 10SM CLR 23/21 A3016 RMK AO2 SLP210 T02280206
KBKV 220253Z AUTO 06006KT 10SM CLR 23/21 A3016 RMK AO2 SLP211 T02330206 53007
KBKV 220153Z AUTO 06006KT 10SM CLR 24/21 A3015 RMK AO2 SLP208 T02440206
KBKV 220053Z 06006KT 10SM SCT060 OVC080 26/20 A3015 RMK AO2 SLP206 T02560200
KBKV 212353Z 06006KT 10SM CLR 25/19 A3014 RMK AO2 SLP205 T02500189 10311 20250 51015
KBKV 212253Z 07006KT 10SM CLR 26/19 A3013 RMK AO2 SLP199 T02610189
KBKV 212153Z 07009KT 10SM CLR 28/19 A3011 RMK AO2 SLP195 T02780189
KBKV 212053Z 08012KT 10SM CLR 29/19 A3009 RMK AO2 SLP188 T02890189 56010
KBKV 211953Z 09009KT 10SM FEW047 SCT055 31/19 A3010 RMK AO2 SLP189 T03110189
KBKV 211853Z 08009G19KT 10SM SCT050 31/18 A3010 RMK AO2 SLP191 T03110183
KBKV 211753Z 09013G20KT 10SM CLR 31/16 A3013 RMK AO2 SLP199 T03060161 10306 20211 58012
KBKV 211653Z 09012G17KT 10SM CLR 30/18 A3015 RMK AO2 SLP206 T03000178
KBKV 211553Z 09010G17KT 10SM CLR 28/17 A3016 RMK AO2 SLP211 T02830172
KBKV 211453Z 08013G18KT 10SM CLR 27/19 A3016 RMK AO2 SLP211 T02720189 51013
KBKV 211353Z 08009KT 10SM CLR 26/20 A3016 RMK AO2 SLP211 T02560200
KBKV 211253Z 05007KT 10SM CLR 22/21 A3015 RMK AO2 SLP207 T02220206